createdAt,value
2023-03-04T00:00:34.960Z,95810.9
2023-03-04T00:01:37.461Z,95816.8
2023-03-04T00:02:39.732Z,95804.9
2023-03-04T00:03:42.040Z,95814.3
2023-03-04T00:04:44.327Z,95815.8
2023-03-04T00:05:46.632Z,95818.3
2023-03-04T00:06:49.160Z,95819.5
2023-03-04T00:07:51.111Z,95816.9
2023-03-04T00:08:53.652Z,95818.2
2023-03-04T00:09:56.167Z,95818.3
2023-03-04T00:10:58.689Z,95817.8
2023-03-04T00:12:01.205Z,95819.9
2023-03-04T00:13:03.734Z,95819.6
2023-03-04T00:14:06.246Z,95822.2
2023-03-04T00:15:08.784Z,95820.3
2023-03-04T00:16:11.634Z,95823.4
2023-03-04T00:17:14.222Z,95812.9
2023-03-04T00:18:16.723Z,95821.5
2023-03-04T00:19:19.259Z,95819.9
2023-03-04T00:20:21.268Z,95821.6
2023-03-04T00:21:23.522Z,95817.2
2023-03-04T00:22:25.800Z,95823.7
2023-03-04T00:23:28.380Z,95819.8
2023-03-04T00:24:30.900Z,95817.8
2023-03-04T00:25:33.448Z,95820.7
2023-03-04T00:26:36.177Z,95821.6
2023-03-04T00:27:38.457Z,95816.1
2023-03-04T00:28:40.716Z,95820.8
2023-03-04T00:29:42.685Z,95820
2023-03-04T00:30:44.936Z,95826
2023-03-04T00:31:47.778Z,95826.2
2023-03-04T00:32:50.358Z,95821.8
2023-03-04T00:33:52.599Z,95829.8
2023-03-04T00:34:55.243Z,95825.5
2023-03-04T00:35:58.048Z,95819
2023-03-04T00:37:00.642Z,95820.2
2023-03-04T00:38:03.152Z,95820.7
2023-03-04T00:39:05.433Z,95822.9
2023-03-04T00:40:08.004Z,95823.8
2023-03-04T00:41:10.230Z,95818.9
2023-03-04T00:42:12.182Z,95819.1
2023-03-04T00:43:14.401Z,95822.9
2023-03-04T00:44:16.665Z,95821.5
2023-03-04T00:45:19.186Z,95824.2
2023-03-04T00:46:21.713Z,95823.8
2023-03-04T00:47:24.358Z,95823.7
2023-03-04T00:48:26.572Z,95826.7
2023-03-04T00:49:29.101Z,95828
2023-03-04T00:50:31.090Z,95828.6
2023-03-04T00:51:33.646Z,95823
2023-03-04T00:52:36.133Z,95826.6
2023-03-04T00:53:38.631Z,95821.2
2023-03-04T00:54:41.162Z,95823.7
2023-03-04T00:55:43.669Z,95822.2
2023-03-04T00:56:45.901Z,95824
2023-03-04T00:57:48.408Z,95823.5
2023-03-04T00:58:50.923Z,95824
2023-03-04T00:59:53.175Z,95823.2
2023-03-04T01:00:55.591Z,95820.8
2023-03-04T01:01:58.179Z,95820.6
2023-03-04T01:03:00.413Z,95817.5
2023-03-04T01:04:02.911Z,95819.4
2023-03-04T01:05:05.400Z,95816.7
2023-03-04T01:06:07.364Z,95816.5
2023-03-04T01:07:09.624Z,95815.6
2023-03-04T01:08:11.851Z,95809
2023-03-04T01:09:14.332Z,95810.3
2023-03-04T01:10:16.553Z,95809.1
2023-03-04T01:11:18.766Z,95808.8
2023-03-04T01:12:21.281Z,95805.7
2023-03-04T01:13:23.505Z,95806.3
2023-03-04T01:14:26.021Z,95807.1
2023-03-04T01:15:28.509Z,95806.7
2023-03-04T01:16:31.162Z,95803.4
2023-03-04T01:17:33.965Z,95801.3
2023-03-04T01:18:36.311Z,95803.1
2023-03-04T01:19:38.537Z,95803.6
2023-03-04T01:20:41.044Z,95802.9
2023-03-04T01:21:43.592Z,95799.9
2023-03-04T01:22:45.894Z,95797.4
2023-03-04T01:23:47.828Z,95797.7
2023-03-04T01:24:50.329Z,95802.4
2023-03-04T01:25:52.851Z,95798.7
2023-03-04T01:26:55.347Z,95797.9
2023-03-04T01:27:57.678Z,95794.1
2023-03-04T01:29:00.183Z,95797.1
2023-03-04T01:30:02.710Z,95802.3
2023-03-04T01:31:05.357Z,95799.2
2023-03-04T01:32:08.207Z,95798
2023-03-04T01:33:10.778Z,95795.3
2023-03-04T01:34:13.114Z,95795.2
2023-03-04T01:35:15.352Z,95792.7
2023-03-04T01:36:17.842Z,95796.5
2023-03-04T01:37:20.414Z,95793.1
2023-03-04T01:38:22.841Z,95789.9
2023-03-04T01:39:25.066Z,95795.5
2023-03-04T01:40:27.009Z,95790.3
2023-03-04T01:41:29.217Z,95791.4
2023-03-04T01:42:31.712Z,95787.7
2023-03-04T01:43:34.265Z,95782.7
2023-03-04T01:44:36.769Z,95788
2023-03-04T01:46:44.328Z,95783
2023-03-04T01:47:46.541Z,95786.4
2023-03-04T01:48:49.055Z,95781.5
2023-03-04T01:49:51.117Z,95780.3
2023-03-04T01:50:53.331Z,95776.1
2023-03-04T01:51:55.831Z,95775.7
2023-03-04T01:52:58.373Z,95775
2023-03-04T01:54:00.903Z,95775.8
2023-03-04T01:55:03.411Z,95774.3
2023-03-04T01:56:05.907Z,95776.8
2023-03-04T01:57:08.394Z,95773.3
2023-03-04T01:58:10.902Z,95773.2
2023-03-04T01:59:13.421Z,95776.1
2023-03-04T02:00:15.933Z,95770.5
2023-03-04T02:01:17.998Z,95770.3
2023-03-04T02:02:20.274Z,95769.5
2023-03-04T02:03:22.507Z,95766.7
2023-03-04T02:04:25.129Z,95766.4
2023-03-04T02:05:28.161Z,95768.1
2023-03-04T02:06:30.819Z,95764.4
2023-03-04T02:07:33.034Z,95763.9
2023-03-04T02:08:35.564Z,95763.1
2023-03-04T02:09:38.139Z,95761.2
2023-03-04T02:10:40.093Z,95763.8
2023-03-04T02:11:42.343Z,95759.9
2023-03-04T02:12:44.853Z,95760.7
2023-03-04T02:13:47.064Z,95757.3
2023-03-04T02:14:49.328Z,95759.6
2023-03-04T02:15:52.019Z,95752.7
2023-03-04T02:16:54.640Z,95749
2023-03-04T02:17:56.897Z,95752.6
2023-03-04T02:18:59.108Z,95745
2023-03-04T02:20:01.072Z,95749.5
2023-03-04T02:21:03.608Z,95744.7
2023-03-04T02:22:06.131Z,95748
2023-03-04T02:23:08.636Z,95747.7
2023-03-04T02:24:10.902Z,95746.8
2023-03-04T02:25:13.450Z,95749.1
2023-03-04T02:26:15.936Z,95743.9
2023-03-04T02:27:18.504Z,95743.1
2023-03-04T02:28:24.126Z,95741.5
2023-03-04T02:29:26.665Z,95741.5
2023-03-04T02:30:29.205Z,95742.6
2023-03-04T02:31:31.712Z,95740.5
2023-03-04T02:32:34.686Z,95739.9
2023-03-04T02:33:37.026Z,95741.7
2023-03-04T02:34:39.528Z,95743
2023-03-04T02:35:42.244Z,95739.4
2023-03-04T02:36:44.493Z,95737
2023-03-04T02:37:46.721Z,95741
2023-03-04T02:38:49.394Z,95736.2
2023-03-04T02:39:52.283Z,95740.4
2023-03-04T02:40:54.547Z,95742.9
2023-03-04T02:41:56.862Z,95741.1
2023-03-04T02:42:59.353Z,95736.5
2023-03-04T02:44:01.952Z,95738.1
2023-03-04T02:45:04.450Z,95741.9
2023-03-04T02:46:07.149Z,95737.8
2023-03-04T02:47:09.474Z,95742.8
2023-03-04T02:48:11.455Z,95741.8
2023-03-04T02:49:13.951Z,95742.3
2023-03-04T02:50:16.693Z,95743.1
2023-03-04T02:51:19.194Z,95746.2
2023-03-04T02:52:21.794Z,95743.1
2023-03-04T02:53:24.123Z,95741.7
2023-03-04T02:54:26.352Z,95741.4
2023-03-04T02:55:28.614Z,95739.5
2023-03-04T02:56:31.173Z,95742.4
2023-03-04T02:57:33.440Z,95739.6
2023-03-04T02:58:35.660Z,95739.6
2023-03-04T02:59:38.165Z,95740.1
2023-03-04T03:00:40.604Z,95737
2023-03-04T03:01:43.326Z,95738.7
2023-03-04T03:02:45.479Z,95739
2023-03-04T03:03:48.009Z,95738
2023-03-04T03:04:50.498Z,95738.6
2023-03-04T03:05:52.741Z,95731.6
2023-03-04T03:06:55.276Z,95734.2
2023-03-04T03:07:57.796Z,95734.3
2023-03-04T03:09:00.040Z,95731.3
2023-03-04T03:10:02.280Z,95733.6
2023-03-04T03:11:04.817Z,95733.2
2023-03-04T03:12:07.379Z,95737.3
2023-03-04T03:13:09.870Z,95738.3
2023-03-04T03:14:12.128Z,95734.9
2023-03-04T03:15:14.641Z,95738.1
2023-03-04T03:16:17.340Z,95742.1
2023-03-04T03:17:19.931Z,95736
2023-03-04T03:18:22.432Z,95737.5
2023-03-04T03:19:24.679Z,95742.8
2023-03-04T03:20:27.179Z,95740.9
2023-03-04T03:21:29.394Z,95742.2
2023-03-04T03:22:31.896Z,95746.6
2023-03-04T03:23:34.408Z,95748.1
2023-03-04T03:24:36.711Z,95750
2023-03-04T03:25:39.203Z,95749.8
2023-03-04T03:26:41.875Z,95754.5
2023-03-04T03:27:44.166Z,95751.1
2023-03-04T03:28:46.715Z,95754
2023-03-04T03:29:48.716Z,95752.8
2023-03-04T03:30:50.938Z,95753.2
2023-03-04T03:31:53.785Z,95755.1
2023-03-04T03:32:55.955Z,95749.9
2023-03-04T03:33:58.444Z,95752
2023-03-04T03:35:00.951Z,95748.5
2023-03-04T03:36:03.723Z,95748.4
2023-03-04T03:37:06.089Z,95750.3
2023-03-04T03:38:08.597Z,95750.3
2023-03-04T03:39:10.846Z,95745.4
2023-03-04T03:40:13.356Z,95747.9
2023-03-04T03:41:15.880Z,95747
2023-03-04T03:42:18.542Z,95748.5
2023-03-04T03:43:21.135Z,95743.4
2023-03-04T03:44:23.647Z,95744.6
2023-03-04T03:45:25.824Z,95741.8
2023-03-04T03:46:28.146Z,95744.9
2023-03-04T03:47:30.397Z,95744.7
2023-03-04T03:48:32.609Z,95744.5
2023-03-04T03:49:35.185Z,95746.2
2023-03-04T03:50:37.161Z,95745.7
2023-03-04T03:51:39.082Z,95741.7
2023-03-04T03:52:41.296Z,95742.6
2023-03-04T03:53:43.895Z,95745.4
2023-03-04T03:54:46.134Z,95743.2
2023-03-04T03:55:48.377Z,95743.5
2023-03-04T03:56:50.608Z,95746.2
2023-03-04T03:57:52.886Z,95743.1
2023-03-04T03:58:55.438Z,95746.6
2023-03-04T03:59:57.959Z,95743.3
2023-03-04T04:01:00.487Z,95739.6
2023-03-04T04:02:03.604Z,95744.8
2023-03-04T04:03:06.748Z,95738.3
2023-03-04T04:04:09.309Z,95739.9
2023-03-04T04:05:11.315Z,95737
2023-03-04T04:06:13.533Z,95739.7
2023-03-04T04:07:16.020Z,95739.1
2023-03-04T04:08:18.555Z,95738.3
2023-03-04T04:09:20.854Z,95735.3
2023-03-04T04:10:23.395Z,95740.1
2023-03-04T04:11:25.599Z,95737.1
2023-03-04T04:12:27.801Z,95734.1
2023-03-04T04:13:30.363Z,95738.8
2023-03-04T04:14:32.928Z,95736.1
2023-03-04T04:15:35.454Z,95738.6
2023-03-04T04:16:38.233Z,95738.9
2023-03-04T04:17:40.890Z,95738.3
2023-03-04T04:18:43.386Z,95735
2023-03-04T04:19:45.402Z,95738.5
2023-03-04T04:20:47.815Z,95736.3
2023-03-04T04:21:50.074Z,95739.5
2023-03-04T04:22:52.295Z,95737.4
2023-03-04T04:23:54.813Z,95740.1
2023-03-04T04:24:57.086Z,95740.9
2023-03-04T04:25:59.420Z,95740
2023-03-04T04:27:01.943Z,95743.5
2023-03-04T04:28:04.477Z,95738.3
2023-03-04T04:29:06.811Z,95740
2023-03-04T04:30:09.466Z,95741.1
2023-03-04T04:31:12.223Z,95739.7
2023-03-04T04:32:15.067Z,95737.4
2023-03-04T04:33:17.610Z,95741.2
2023-03-04T04:34:19.853Z,95737.2
2023-03-04T04:35:22.557Z,95739.2
2023-03-04T04:36:24.353Z,95740.2
2023-03-04T04:37:26.849Z,95742.5
2023-03-04T04:38:29.351Z,95746.1
2023-03-04T04:39:31.825Z,95747.2
2023-03-04T04:40:34.315Z,95747.9
2023-03-04T04:41:36.831Z,95742.3
2023-03-04T04:42:39.366Z,95747
2023-03-04T04:43:41.554Z,95745.3
2023-03-04T04:44:44.124Z,95741.2
2023-03-04T04:45:46.906Z,95744.1
2023-03-04T04:46:49.476Z,95745
2023-03-04T04:47:51.706Z,95741.8
2023-03-04T04:48:53.917Z,95734.9
2023-03-04T04:49:56.435Z,95738.1
2023-03-04T04:50:58.949Z,95737.5
2023-03-04T04:52:01.465Z,95737.4
2023-03-04T04:53:03.685Z,95741.6
2023-03-04T04:54:06.174Z,95737.3
2023-03-04T04:55:08.659Z,95739.8
2023-03-04T04:56:10.939Z,95738
2023-03-04T04:57:13.173Z,95740
2023-03-04T04:58:15.750Z,95738
2023-03-04T04:59:18.235Z,95744.7
2023-03-04T05:00:20.269Z,95744.7
2023-03-04T05:01:22.874Z,95740.4
2023-03-04T05:02:25.442Z,95740.2
2023-03-04T05:03:28.189Z,95741.1
2023-03-04T05:04:30.784Z,95744.4
2023-03-04T05:05:32.703Z,95744.3
2023-03-04T05:06:35.188Z,95744.6
2023-03-04T05:07:37.726Z,95742.2
2023-03-04T05:08:40.243Z,95745.9
2023-03-04T05:09:42.471Z,95746
2023-03-04T05:10:45.027Z,95747.3
2023-03-04T05:11:47.515Z,95742.4
2023-03-04T05:12:50.077Z,95747.3
2023-03-04T05:13:52.593Z,95744
2023-03-04T05:14:54.902Z,95745.8
2023-03-04T05:15:57.316Z,95746.5
2023-03-04T05:16:59.810Z,95751.6
2023-03-04T05:18:02.367Z,95747.8
2023-03-04T05:19:04.869Z,95749.6
2023-03-04T05:20:07.395Z,95745.5
2023-03-04T05:21:09.934Z,95743.8
2023-03-04T05:22:12.438Z,95749.4
2023-03-04T05:23:14.635Z,95746.9
2023-03-04T05:24:17.169Z,95746.1
2023-03-04T05:25:19.671Z,95744.5
2023-03-04T05:26:21.361Z,95746.8
2023-03-04T05:27:23.878Z,95745.3
2023-03-04T05:28:26.149Z,95742.1
2023-03-04T05:29:28.717Z,95745.7
2023-03-04T05:30:31.270Z,95740.6
2023-03-04T05:31:33.813Z,95739.8
2023-03-04T05:32:36.462Z,95748.1
2023-03-04T05:33:38.449Z,95742.3
2023-03-04T05:34:40.991Z,95746.8
2023-03-04T05:35:43.687Z,95745.7
2023-03-04T05:36:46.276Z,95748.6
2023-03-04T05:37:48.515Z,95747.8
2023-03-04T05:38:51.014Z,95748.3
2023-03-04T05:39:53.513Z,95751.1
2023-03-04T05:40:55.713Z,95749.8
2023-03-04T05:41:58.247Z,95747.5
2023-03-04T05:43:00.481Z,95750.9
2023-03-04T05:44:03.002Z,95751.5
2023-03-04T05:45:05.230Z,95753.3
2023-03-04T05:46:07.717Z,95748
2023-03-04T05:47:10.338Z,95751.4
2023-03-04T05:48:12.899Z,95752.6
2023-03-04T05:49:14.865Z,95750.5
2023-03-04T05:50:17.077Z,95749
2023-03-04T05:51:19.567Z,95750.2
2023-03-04T05:52:22.087Z,95749.9
2023-03-04T05:53:24.080Z,95750.4
2023-03-04T05:54:26.346Z,95751
2023-03-04T05:55:28.625Z,95752.3
2023-03-04T05:56:30.876Z,95755.3
2023-03-04T05:57:33.784Z,95751
2023-03-04T05:58:36.305Z,95756.9
2023-03-04T05:59:38.821Z,95755.4
2023-03-04T06:00:41.039Z,95754.8
2023-03-04T06:01:43.537Z,95759.7
2023-03-04T06:02:46.351Z,95757.1
2023-03-04T06:03:49.382Z,95760.5
2023-03-04T06:04:51.750Z,95759.3
2023-03-04T06:05:53.981Z,95759.6
2023-03-04T06:06:56.513Z,95762
2023-03-04T06:07:59.037Z,95763.4
2023-03-04T06:09:01.668Z,95764
2023-03-04T06:10:03.905Z,95769
2023-03-04T06:11:05.891Z,95768.1
2023-03-04T06:12:08.412Z,95771.5
2023-03-04T06:13:10.954Z,95771.9
2023-03-04T06:14:13.363Z,95771.4
2023-03-04T06:15:15.828Z,95770.3
2023-03-04T06:16:18.486Z,95770.8
2023-03-04T06:17:21.073Z,95770.5
2023-03-04T06:18:23.646Z,95771.3
2023-03-04T06:19:25.978Z,95772.7
2023-03-04T06:20:28.515Z,95777.9
2023-03-04T06:21:30.784Z,95779
2023-03-04T06:22:33.288Z,95774.3
2023-03-04T06:23:35.804Z,95774
2023-03-04T06:24:37.797Z,95777.3
2023-03-04T06:25:40.038Z,95779.8
2023-03-04T06:26:42.270Z,95778.6
2023-03-04T06:27:44.269Z,95779.9
2023-03-04T06:28:46.794Z,95777.7
2023-03-04T06:29:48.768Z,95782.3
2023-03-04T06:30:51.327Z,95785.8
2023-03-04T06:31:54.040Z,95779.7
2023-03-04T06:32:56.753Z,95788.4
2023-03-04T06:33:59.037Z,95790.3
2023-03-04T06:35:01.384Z,95791.7
2023-03-04T06:36:03.933Z,95792.6
2023-03-04T06:37:06.431Z,95786.3
2023-03-04T06:38:08.710Z,95788.3
2023-03-04T06:39:11.206Z,95786.7
2023-03-04T06:40:13.423Z,95785.7
2023-03-04T06:41:15.700Z,95787.4
2023-03-04T06:42:17.956Z,95785
2023-03-04T06:43:19.666Z,95789.4
2023-03-04T06:44:21.890Z,95788.4
2023-03-04T06:45:24.165Z,95787.1
2023-03-04T06:47:32.896Z,95789.5
2023-03-04T06:48:35.156Z,95792.1
2023-03-04T06:49:37.733Z,95786.1
2023-03-04T06:50:40.272Z,95786.9
2023-03-04T06:51:42.548Z,95787.5
2023-03-04T06:52:45.101Z,95789
2023-03-04T06:53:47.634Z,95789
2023-03-04T06:54:50.287Z,95790.5
2023-03-04T06:55:52.549Z,95792.4
2023-03-04T06:56:55.064Z,95795.2
2023-03-04T06:57:57.581Z,95792.9
2023-03-04T06:59:00.111Z,95796
2023-03-04T07:00:02.671Z,95793
2023-03-04T07:01:05.457Z,95794.9
2023-03-04T07:02:08.056Z,95796.3
2023-03-04T07:03:10.607Z,95799.5
2023-03-04T07:04:13.354Z,95802.1
2023-03-04T07:05:15.580Z,95803.4
2023-03-04T07:06:17.588Z,95801.5
2023-03-04T07:07:20.104Z,95803
2023-03-04T07:08:23.339Z,95804.2
2023-03-04T07:09:25.851Z,95803.5
2023-03-04T07:10:28.083Z,95803.9
2023-03-04T07:11:30.044Z,95797.4
2023-03-04T07:12:32.299Z,95801.7
2023-03-04T07:13:34.802Z,95802.3
2023-03-04T07:14:37.411Z,95803.3
2023-03-04T07:15:39.913Z,95804.9
2023-03-04T07:16:42.072Z,95806
2023-03-04T07:17:44.446Z,95807.6
2023-03-04T07:18:46.411Z,95807.6
2023-03-04T07:19:48.652Z,95802.1
2023-03-04T07:20:50.929Z,95802.2
2023-03-04T07:21:53.535Z,95799.5
2023-03-04T07:22:56.061Z,95806.7
2023-03-04T07:23:58.574Z,95803.1
2023-03-04T07:25:00.888Z,95802.7
2023-03-04T07:26:03.146Z,95801.9
2023-03-04T07:27:05.381Z,95810.3
2023-03-04T07:28:07.614Z,95807.3
2023-03-04T07:29:09.884Z,95808
2023-03-04T07:30:12.384Z,95808.7
2023-03-04T07:31:15.424Z,95813.5
2023-03-04T07:32:18.619Z,95813.6
2023-03-04T07:33:21.457Z,95815.5
2023-03-04T07:34:23.429Z,95814.2
2023-03-04T07:35:25.583Z,95812.8
2023-03-04T07:36:28.235Z,95820.7
2023-03-04T07:37:30.814Z,95819.4
2023-03-04T07:38:33.082Z,95819.1
2023-03-04T07:39:35.328Z,95821.8
2023-03-04T07:40:37.279Z,95821.3
2023-03-04T07:41:39.547Z,95826.5
2023-03-04T07:42:42.070Z,95825.9
2023-03-04T07:43:44.602Z,95824.8
2023-03-04T07:44:46.807Z,95824.3
2023-03-04T07:45:48.658Z,95821.7
2023-03-04T07:46:51.070Z,95830.4
2023-03-04T07:47:53.640Z,95830.9
2023-03-04T07:48:55.955Z,95833.2
2023-03-04T07:49:58.211Z,95838.3
2023-03-04T07:51:00.687Z,95840.1
2023-03-04T07:52:03.234Z,95836.3
2023-03-04T07:53:05.848Z,95840.4
2023-03-04T07:54:08.379Z,95841.2
2023-03-04T07:55:10.659Z,95844
2023-03-04T07:56:13.184Z,95845.9
2023-03-04T07:57:15.412Z,95844.9
2023-03-04T07:58:17.919Z,95842
2023-03-04T07:59:20.471Z,95847.1
2023-03-04T08:00:23.028Z,95845
2023-03-04T08:01:24.742Z,95848.4
2023-03-04T08:02:27.206Z,95850.7
2023-03-04T08:03:29.810Z,95851.2
2023-03-04T08:04:32.605Z,95855.4
2023-03-04T08:05:35.007Z,95854.9
2023-03-04T08:06:37.498Z,95849.8
2023-03-04T08:07:39.780Z,95851.9
2023-03-04T08:08:42.325Z,95851.5
2023-03-04T08:09:44.608Z,95852.1
2023-03-04T08:10:47.122Z,95857
2023-03-04T08:11:49.351Z,95852.7
2023-03-04T08:12:51.852Z,95848
2023-03-04T08:13:54.203Z,95853.2
2023-03-04T08:14:56.712Z,95847.9
2023-03-04T08:15:59.330Z,95853.2
2023-03-04T08:17:01.620Z,95850.9
2023-03-04T08:18:04.169Z,95849.8
2023-03-04T08:19:06.730Z,95855.5
2023-03-04T08:20:09.299Z,95856.4
2023-03-04T08:21:11.604Z,95853
2023-03-04T08:22:14.135Z,95852.3
2023-03-04T08:23:16.414Z,95854.6
2023-03-04T08:24:18.955Z,95854.4
2023-03-04T08:25:21.455Z,95858.1
2023-03-04T08:26:23.676Z,95856
2023-03-04T08:27:25.904Z,95855.8
2023-03-04T08:28:28.146Z,95854.5
2023-03-04T08:29:30.667Z,95854.5
2023-03-04T08:30:33.200Z,95850.4
2023-03-04T08:31:36.245Z,95850.3
2023-03-04T08:32:39.261Z,95851.5
2023-03-04T08:33:41.981Z,95850
2023-03-04T08:34:44.476Z,95844.9
2023-03-04T08:35:46.998Z,95850
2023-03-04T08:36:49.338Z,95846.7
2023-03-04T08:37:51.040Z,95853.8
2023-03-04T08:38:53.318Z,95853.7
2023-03-04T08:39:55.906Z,95852.6
2023-03-04T08:40:58.166Z,95850.7
2023-03-04T08:42:00.417Z,95854.9
2023-03-04T08:43:02.674Z,95851
2023-03-04T08:44:04.924Z,95854
2023-03-04T08:45:07.459Z,95851.2
2023-03-04T08:46:10.262Z,95849.9
2023-03-04T08:47:12.598Z,95848.8
2023-03-04T08:48:15.115Z,95852.3
2023-03-04T08:49:17.626Z,95847
2023-03-04T08:50:23.429Z,95852.3
2023-03-04T08:51:25.709Z,95852.4
2023-03-04T08:52:27.648Z,95847.2
2023-03-04T08:53:29.930Z,95853.3
2023-03-04T08:54:32.479Z,95850.3
2023-03-04T08:55:35.041Z,95849.3
2023-03-04T08:56:36.986Z,95850.6
2023-03-04T08:57:39.204Z,95853.7
2023-03-04T08:58:41.708Z,95848
2023-03-04T08:59:44.205Z,95850.6
2023-03-04T09:00:46.720Z,95853.1
2023-03-04T09:01:49.117Z,95848.5
2023-03-04T09:02:51.158Z,95850.1
2023-03-04T09:03:54.198Z,95855.3
2023-03-04T09:04:56.545Z,95854.5
2023-03-04T09:05:58.804Z,95850.9
2023-03-04T09:07:00.873Z,95847.4
2023-03-04T09:08:03.402Z,95852.8
2023-03-04T09:09:05.906Z,95849.6
2023-03-04T09:10:08.538Z,95849.7
2023-03-04T09:11:11.150Z,95850.4
2023-03-04T09:12:13.109Z,95854.4
2023-03-04T09:13:15.350Z,95850.9
2023-03-04T09:14:17.885Z,95849.9
2023-03-04T09:15:20.175Z,95850.4
2023-03-04T09:16:22.483Z,95843.4
2023-03-04T09:17:24.837Z,95842.4
2023-03-04T09:18:27.222Z,95843.6
2023-03-04T09:19:29.792Z,95841.8
2023-03-04T09:20:32.100Z,95845.1
2023-03-04T09:21:34.660Z,95837
2023-03-04T09:22:37.251Z,95842.9
2023-03-04T09:23:39.284Z,95840
2023-03-04T09:24:41.802Z,95843.1
2023-03-04T09:25:43.790Z,95839
2023-03-04T09:26:46.410Z,95835.1
2023-03-04T09:27:48.638Z,95835.5
2023-03-04T09:28:51.132Z,95835.4
2023-03-04T09:29:53.636Z,95832.9
2023-03-04T09:30:55.858Z,95831.2
2023-03-04T09:31:58.535Z,95836.4
2023-03-04T09:33:01.122Z,95836.2
2023-03-04T09:34:03.655Z,95834.5
2023-03-04T09:35:06.239Z,95832.4
2023-03-04T09:36:08.506Z,95834.3
2023-03-04T09:37:11.099Z,95830
2023-03-04T09:38:13.685Z,95831.3
2023-03-04T09:39:16.244Z,95840
2023-03-04T09:40:18.772Z,95836.8
2023-03-04T09:41:21.468Z,95840.3
2023-03-04T09:42:23.768Z,95839.2
2023-03-04T09:43:26.279Z,95843.2
2023-03-04T09:44:28.247Z,95842.8
2023-03-04T09:45:30.471Z,95842.4
2023-03-04T09:46:33.297Z,95839.6
2023-03-04T09:47:35.637Z,95843.5
2023-03-04T09:48:38.144Z,95841.2
2023-03-04T09:49:40.362Z,95839.5
2023-03-04T09:50:42.899Z,95842.6
2023-03-04T09:51:45.430Z,95838.5
2023-03-04T09:52:47.958Z,95840.7
2023-03-04T09:53:50.483Z,95843.2
2023-03-04T09:54:52.738Z,95838
2023-03-04T09:55:55.254Z,95839.2
2023-03-04T09:56:57.818Z,95843
2023-03-04T09:58:00.437Z,95838.1
2023-03-04T09:59:02.134Z,95836.2
2023-03-04T10:00:04.739Z,95835.4
2023-03-04T10:01:07.266Z,95836.2
2023-03-04T10:02:09.478Z,95831.6
2023-03-04T10:03:12.352Z,95834.3
2023-03-04T10:04:14.611Z,95834.3
2023-03-04T10:05:16.827Z,95831.4
2023-03-04T10:06:19.331Z,95831.2
2023-03-04T10:07:21.848Z,95833.8
2023-03-04T10:08:24.362Z,95829
2023-03-04T10:09:26.943Z,95829.3
2023-03-04T10:10:29.378Z,95825.4
2023-03-04T10:11:31.708Z,95824.4
2023-03-04T10:12:33.684Z,95824.8
2023-03-04T10:13:35.928Z,95821.7
2023-03-04T10:14:38.181Z,95821.2
2023-03-04T10:15:39.904Z,95825.3
2023-03-04T10:16:42.405Z,95824
2023-03-04T10:17:44.364Z,95824.7
2023-03-04T10:18:46.597Z,95819.6
2023-03-04T10:19:48.821Z,95819.3
2023-03-04T10:20:51.065Z,95818.1
2023-03-04T10:21:53.316Z,95815.4
2023-03-04T10:22:55.259Z,95813.7
2023-03-04T10:25:02.823Z,95810.7
2023-03-04T10:26:05.315Z,95813.5
2023-03-04T10:27:07.318Z,95806.4
2023-03-04T10:28:09.869Z,95806.5
2023-03-04T10:29:12.431Z,95807.1
2023-03-04T10:30:14.681Z,95807.8
2023-03-04T10:31:17.214Z,95803
2023-03-04T10:32:19.449Z,95802.9
2023-03-04T10:33:22.177Z,95804
2023-03-04T10:34:24.421Z,95803
2023-03-04T10:35:26.923Z,95799.3
2023-03-04T10:36:29.312Z,95801.5
2023-03-04T10:37:31.559Z,95803.4
2023-03-04T10:38:34.104Z,95803.9
2023-03-04T10:39:36.346Z,95799.5
2023-03-04T10:40:38.882Z,95800.8
2023-03-04T10:41:41.496Z,95804.5
2023-03-04T10:42:44.620Z,95801.7
2023-03-04T10:43:47.218Z,95794.1
2023-03-04T10:44:49.791Z,95796.3
2023-03-04T10:45:52.614Z,95791.5
2023-03-04T10:46:54.717Z,95792
2023-03-04T10:47:56.964Z,95792.2
2023-03-04T10:48:59.522Z,95793.1
2023-03-04T10:50:02.155Z,95785.4
2023-03-04T10:51:04.673Z,95789.4
2023-03-04T10:52:06.908Z,95788.7
2023-03-04T10:53:09.155Z,95789.1
2023-03-04T10:54:11.400Z,95790.4
2023-03-04T10:55:13.627Z,95786.2
2023-03-04T10:56:15.625Z,95787.8
2023-03-04T10:57:17.861Z,95786
2023-03-04T10:58:20.102Z,95784.5
2023-03-04T10:59:22.393Z,95789
2023-03-04T11:00:24.973Z,95782.2
2023-03-04T11:01:27.410Z,95777.9
2023-03-04T11:02:30.073Z,95778.2
2023-03-04T11:03:32.825Z,95779.6
2023-03-04T11:04:34.916Z,95783
2023-03-04T11:05:37.181Z,95781.8
2023-03-04T11:06:39.683Z,95781.5
2023-03-04T11:08:47.159Z,95777.5
2023-03-04T11:09:49.384Z,95779.1
2023-03-04T11:10:51.909Z,95786
2023-03-04T11:11:54.434Z,95778.6
2023-03-04T11:12:56.670Z,95783.3
2023-03-04T11:13:58.952Z,95785
2023-03-04T11:15:01.565Z,95781.3
2023-03-04T11:16:04.152Z,95779.7
2023-03-04T11:17:06.388Z,95782.2
2023-03-04T11:18:08.900Z,95780.3
2023-03-04T11:19:11.466Z,95775.1
2023-03-04T11:20:13.701Z,95774.8
2023-03-04T11:21:15.915Z,95775.9
2023-03-04T11:22:18.175Z,95777.1
2023-03-04T11:23:20.663Z,95775.4
2023-03-04T11:25:28.158Z,95776.6
2023-03-04T11:26:30.360Z,95779.9
2023-03-04T11:27:32.887Z,95780.4
2023-03-04T11:28:35.431Z,95774.4
2023-03-04T11:29:37.719Z,95775.5
2023-03-04T11:30:40.021Z,95779.7
2023-03-04T11:31:42.764Z,95780.1
2023-03-04T11:32:45.559Z,95776.8
2023-03-04T11:33:48.232Z,95781.1
2023-03-04T11:34:50.761Z,95775.5
2023-03-04T11:35:53.642Z,95775
2023-03-04T11:36:55.978Z,95776.7
2023-03-04T11:37:57.932Z,95774.4
2023-03-04T11:38:59.931Z,95772.2
2023-03-04T11:40:02.454Z,95768.5
2023-03-04T11:41:04.712Z,95773.7
2023-03-04T11:42:06.747Z,95769.8
2023-03-04T11:43:08.733Z,95767.4
2023-03-04T11:44:10.988Z,95768.9
2023-03-04T11:46:18.504Z,95768.5
2023-03-04T11:47:21.106Z,95767.5
2023-03-04T11:48:23.368Z,95764.2
2023-03-04T11:49:25.588Z,95762.5
2023-03-04T11:50:27.835Z,95762.8
2023-03-04T11:51:30.103Z,95761.2
2023-03-04T11:52:32.353Z,95758.3
2023-03-04T11:53:34.941Z,95760.6
2023-03-04T11:54:37.176Z,95764.1
2023-03-04T11:55:39.427Z,95762.6
2023-03-04T11:56:41.986Z,95761
2023-03-04T11:57:44.232Z,95752.4
2023-03-04T11:58:46.764Z,95759.9
2023-03-04T11:59:48.708Z,95754.9
2023-03-04T12:00:51.212Z,95752.3
2023-03-04T12:01:53.798Z,95747.7
2023-03-04T12:02:56.370Z,95754.4
2023-03-04T12:03:59.546Z,95756.2
2023-03-04T12:05:02.773Z,95753.4
2023-03-04T12:06:05.270Z,95754.8
2023-03-04T12:07:07.816Z,95749.4
2023-03-04T12:08:10.039Z,95749.2
2023-03-04T12:09:12.300Z,95748.6
2023-03-04T12:10:14.835Z,95745.2
2023-03-04T12:11:19.423Z,95743
2023-03-04T12:12:21.972Z,95741.6
2023-03-04T12:13:23.678Z,95746.3
2023-03-04T12:14:26.253Z,95748.7
2023-03-04T12:15:29.848Z,95749.5
2023-03-04T12:16:32.346Z,95741
2023-03-04T12:17:34.632Z,95742.5
2023-03-04T12:18:36.899Z,95739.5
2023-03-04T12:19:39.430Z,95738.1
2023-03-04T12:20:41.405Z,95733
2023-03-04T12:21:43.692Z,95732.6
2023-03-04T12:22:45.938Z,95730.5
2023-03-04T12:23:48.438Z,95725.9
2023-03-04T12:24:50.719Z,95727.5
2023-03-04T12:25:53.307Z,95725.9
2023-03-04T12:26:55.608Z,95728.5
2023-03-04T12:27:57.832Z,95728.3
2023-03-04T12:29:00.343Z,95729.4
2023-03-04T12:30:02.949Z,95725.3
2023-03-04T12:31:05.459Z,95724.5
2023-03-04T12:32:08.558Z,95716.1
2023-03-04T12:33:11.341Z,95720.8
2023-03-04T12:34:13.640Z,95713.6
2023-03-04T12:35:16.324Z,95716.7
2023-03-04T12:36:20.329Z,95713.5
2023-03-04T12:37:22.940Z,95707.6
2023-03-04T12:38:25.471Z,95713.7
2023-03-04T12:39:27.981Z,95708.8
2023-03-04T12:40:30.497Z,95706.1
2023-03-04T12:41:33.014Z,95706.7
2023-03-04T12:42:35.564Z,95701.9
2023-03-04T12:43:37.787Z,95699.8
2023-03-04T12:44:40.010Z,95695.1
2023-03-04T12:45:42.547Z,95702.6
2023-03-04T12:46:45.337Z,95690.5
2023-03-04T12:47:47.725Z,95695